Time;durP1;ratioP1;P1;durP2;ratioP2;P2;SDS_P1;SDS_P2;PMS_P1;PMS_P2;Temp;Humidity;BMP_temperature;BMP_pressure;BME280_temperature;BME280_humidity;BME280_pressure;Samples;Min_cycle;Max_cycle;Signal;HPM_P1;HPM_P2
2021/09/05 00:02:16;;;;;;;6.57;5.97;;;17.10;99.20;;;;;;6324737;28;20473;-64
2021/09/05 00:05:20;;;;;;;7.37;5.60;;;17.20;99.30;;;;;;6323976;28;20802;-63
2021/09/05 00:08:23;;;;;;;6.10;5.50;;;17.10;99.30;;;;;;6324258;28;20471;-64
2021/09/05 00:11:26;;;;;;;6.70;6.00;;;17.10;99.40;;;;;;6324013;28;20479;-63
2021/09/05 00:14:29;;;;;;;7.40;6.47;;;17.00;99.40;;;;;;6319705;28;20472;-64
2021/09/05 00:17:34;;;;;;;8.70;6.00;;;17.00;99.40;;;;;;6298740;28;20870;-64
2021/09/05 00:20:37;;;;;;;5.80;5.30;;;17.00;99.60;;;;;;6298971;28;20473;-63
2021/09/05 00:23:40;;;;;;;6.33;5.73;;;17.00;99.70;;;;;;6298702;28;20899;-63
2021/09/05 00:26:46;;;;;;;10.80;5.70;;;17.00;99.70;;;;;;6298671;28;20881;-63
2021/09/05 00:29:49;;;;;;;5.90;4.93;;;16.90;99.70;;;;;;6298541;28;20483;-63
2021/09/05 00:32:54;;;;;;;6.80;6.00;;;16.90;99.80;;;;;;6298856;28;20472;-63
2021/09/05 00:35:57;;;;;;;6.33;5.80;;;16.90;99.80;;;;;;6298635;28;20480;-63
2021/09/05 00:39:00;;;;;;;5.90;5.33;;;16.80;99.80;;;;;;6298268;28;20473;-62
2021/09/05 00:42:04;;;;;;;5.50;4.97;;;16.90;99.90;;;;;;6328084;28;20468;-63
2021/09/05 00:45:08;;;;;;;6.43;5.67;;;16.80;99.90;;;;;;6333216;28;20467;-61
2021/09/05 00:48:13;;;;;;;6.33;5.73;;;16.80;99.90;;;;;;6345287;28;20824;-61
2021/09/05 00:51:16;;;;;;;6.63;6.03;;;16.70;99.90;;;;;;6321464;28;20783;-63
2021/09/05 00:54:20;;;;;;;6.40;5.80;;;16.70;99.90;;;;;;6321775;28;20480;-62
2021/09/05 00:57:23;;;;;;;8.33;6.37;;;16.70;99.90;;;;;;6323698;28;20486;-61
2021/09/05 01:00:27;;;;;;;6.80;6.10;;;16.70;99.90;;;;;;6323419;28;20472;-61
2021/09/05 01:03:31;;;;;;;7.30;5.80;;;16.60;99.90;;;;;;6323371;28;20470;-62
2021/09/05 01:06:36;;;;;;;5.67;5.03;;;16.70;99.90;;;;;;6323407;28;20782;-60
2021/09/05 01:09:39;;;;;;;5.87;5.30;;;16.70;99.90;;;;;;6323171;28;20787;-61
2021/09/05 01:12:43;;;;;;;6.70;6.10;;;16.60;99.90;;;;;;6323306;28;20472;-61
2021/09/05 01:15:46;;;;;;;6.37;5.77;;;16.60;99.90;;;;;;6323269;28;20471;-62
2021/09/05 01:18:50;;;;;;;6.77;5.67;;;16.50;99.90;;;;;;6313818;28;20490;-63
2021/09/05 01:25:11;;;;;;;6.30;5.70;;;16.40;99.90;;;;;;6535020;23;20476;-55
2021/09/05 01:28:16;;;;;;;6.23;5.63;;;16.40;99.90;;;;;;6249571;28;20483;-56
2021/09/05 01:31:19;;;;;;;7.00;5.77;;;16.40;99.90;;;;;;6249982;28;20478;-55
2021/09/05 01:34:23;;;;;;;5.73;5.13;;;16.30;99.90;;;;;;6212780;28;20793;-56
2021/09/05 01:37:26;;;;;;;7.10;6.13;;;16.20;99.90;;;;;;6716146;23;20501;-55
2021/09/05 01:40:29;;;;;;;8.77;6.30;;;16.20;99.90;;;;;;6229286;28;20436;-54
2021/09/05 01:43:34;;;;;;;6.13;5.53;;;16.10;99.90;;;;;;6229142;28;20479;-55
2021/09/05 01:46:38;;;;;;;6.60;5.53;;;16.20;99.90;;;;;;6229126;28;20530;-56
2021/09/05 01:49:41;;;;;;;7.10;6.50;;;16.10;99.90;;;;;;6228687;28;20456;-55
2021/09/05 01:52:44;;;;;;;5.57;5.17;;;16.20;99.90;;;;;;6229324;28;20475;-57
2021/09/05 02:02:27;;;;;;;7.57;6.77;;;16.10;99.90;;;;;;4076376;23;20475;-59
2021/09/05 02:05:30;;;;;;;6.57;6.07;;;16.00;99.90;;;;;;6253855;28;20463;-61
2021/09/05 02:08:33;;;;;;;7.13;6.43;;;16.00;99.90;;;;;;6253599;28;20463;-60
2021/09/05 02:11:37;;;;;;;9.00;6.60;;;15.90;99.90;;;;;;6722486;23;21720;-61
2021/09/05 02:14:40;;;;;;;6.40;5.80;;;15.90;99.90;;;;;;6204755;28;20452;-62
2021/09/05 02:21:10;;;;;;;7.43;6.77;;;16.00;99.90;;;;;;6150153;28;20475;-60
2021/09/05 02:24:13;;;;;;;6.20;5.70;;;16.00;99.90;;;;;;6156057;29;20486;-61
2021/09/05 02:27:17;;;;;;;5.47;5.07;;;16.00;99.90;;;;;;6155708;29;20561;-60
2021/09/05 02:30:20;;;;;;;8.00;7.00;;;15.90;99.90;;;;;;6155454;29;20474;-61
2021/09/05 02:33:23;;;;;;;6.83;6.23;;;15.90;99.90;;;;;;6155779;29;20530;-59
2021/09/05 02:36:28;;;;;;;5.93;5.40;;;16.00;99.90;;;;;;6155940;29;20482;-60
2021/09/05 02:39:31;;;;;;;6.50;5.10;;;16.00;99.90;;;;;;6155520;29;20479;-59
2021/09/05 02:42:35;;;;;;;5.30;4.90;;;15.90;99.90;;;;;;6155029;29;20987;-59
2021/09/05 02:45:38;;;;;;;6.40;5.80;;;15.90;99.90;;;;;;6155565;29;20482;-59
2021/09/05 02:48:41;;;;;;;6.50;5.87;;;15.80;99.90;;;;;;6154954;28;20633;-59
2021/09/05 02:51:46;;;;;;;8.50;5.97;;;15.70;99.90;;;;;;6154512;29;20482;-59
2021/09/05 02:54:49;;;;;;;7.40;5.40;;;15.70;99.90;;;;;;6155343;29;20960;-59
2021/09/05 02:57:52;;;;;;;6.20;5.57;;;15.60;99.90;;;;;;6154951;29;20483;-59
2021/09/05 03:00:55;;;;;;;6.60;5.90;;;15.60;99.90;;;;;;6154894;29;20485;-60
2021/09/05 03:03:58;;;;;;;7.83;6.80;;;15.50;99.90;;;;;;6154778;29;21051;-59
2021/09/05 03:07:03;;;;;;;6.63;6.03;;;15.40;99.90;;;;;;6154585;29;20486;-59
2021/09/05 03:10:07;;;;;;;6.60;5.87;;;15.30;99.90;;;;;;6155386;29;20532;-59
2021/09/05 03:13:10;;;;;;;6.37;5.77;;;15.20;99.90;;;;;;6154426;29;20806;-59
2021/09/05 03:16:13;;;;;;;6.77;6.17;;;15.20;99.90;;;;;;6154386;29;20481;-59
2021/09/05 03:19:16;;;;;;;6.90;6.27;;;15.30;99.90;;;;;;6154510;29;20497;-59
2021/09/05 03:22:21;;;;;;;5.83;5.27;;;15.30;99.90;;;;;;6153831;28;20470;-59
2021/09/05 03:25:24;;;;;;;7.00;6.30;;;15.30;99.90;;;;;;6154120;29;20908;-59
2021/09/05 03:28:27;;;;;;;6.73;6.10;;;15.30;99.90;;;;;;6154327;29;20474;-59
2021/09/05 03:31:30;;;;;;;6.77;6.17;;;15.30;99.90;;;;;;6153946;29;20473;-59
2021/09/05 03:34:34;;;;;;;6.23;5.70;;;15.30;99.90;;;;;;6153892;29;20446;-59
2021/09/05 03:37:38;;;;;;;6.23;5.70;;;15.30;99.90;;;;;;6154167;29;20521;-60
2021/09/05 03:40:41;;;;;;;6.57;5.27;;;15.30;99.90;;;;;;6154112;29;20475;-60
2021/09/05 03:43:44;;;;;;;6.80;6.10;;;15.30;99.90;;;;;;6154114;29;20473;-60
2021/09/05 03:46:47;;;;;;;6.77;6.07;;;15.30;99.90;;;;;;6154020;28;20466;-59
2021/09/05 03:49:51;;;;;;;6.23;5.40;;;15.30;99.90;;;;;;6153622;29;20471;-60
2021/09/05 03:52:55;;;;;;;6.37;5.87;;;15.30;99.90;;;;;;6153978;28;20463;-60
2021/09/05 03:55:58;;;;;;;6.13;5.57;;;15.30;99.90;;;;;;6153666;29;20462;-60
2021/09/05 03:59:03;;;;;;;6.50;5.80;;;15.20;99.90;;;;;;6153516;28;20815;-60
2021/09/05 04:02:06;;;;;;;6.63;5.83;;;15.20;99.90;;;;;;6152090;28;20479;-59
2021/09/05 04:05:11;;;;;;;6.70;6.00;;;15.10;99.90;;;;;;6153745;28;20525;-60
2021/09/05 04:08:16;;;;;;;7.50;6.43;;;15.10;99.90;;;;;;6153388;29;20980;-60
2021/09/05 04:11:19;;;;;;;7.60;6.87;;;15.00;99.90;;;;;;6153753;28;20467;-60
2021/09/05 04:14:23;;;;;;;6.90;6.30;;;15.10;99.90;;;;;;6153137;29;20474;-60
2021/09/05 04:17:26;;;;;;;6.20;5.60;;;15.10;99.90;;;;;;6153135;29;20478;-60
2021/09/05 04:20:29;;;;;;;7.33;6.13;;;15.10;99.90;;;;;;6152821;29;20478;-60
2021/09/05 04:23:33;;;;;;;6.40;5.80;;;15.10;99.90;;;;;;6153124;29;20489;-60
2021/09/05 04:26:36;;;;;;;6.33;5.73;;;15.10;99.90;;;;;;6153492;29;20466;-60
2021/09/05 04:29:39;;;;;;;7.43;6.73;;;15.10;99.90;;;;;;6144503;29;20478;-60
2021/09/05 04:32:43;;;;;;;7.57;6.87;;;15.10;99.90;;;;;;6153094;28;20475;-60
2021/09/05 04:35:46;;;;;;;7.37;6.67;;;15.10;99.90;;;;;;6153258;29;20486;-60
2021/09/05 04:38:50;;;;;;;7.90;6.90;;;15.10;99.90;;;;;;6153443;28;20486;-60
2021/09/05 04:41:54;;;;;;;5.63;5.13;;;15.10;99.90;;;;;;6153327;29;20483;-60
2021/09/05 04:44:57;;;;;;;6.50;5.90;;;15.00;99.90;;;;;;6153233;28;20477;-60
2021/09/05 04:48:00;;;;;;;6.83;6.23;;;15.10;99.90;;;;;;6152777;29;20475;-60
2021/09/05 04:51:03;;;;;;;7.17;6.47;;;15.10;99.90;;;;;;6153049;29;20470;-60
2021/09/05 04:54:08;;;;;;;6.17;5.50;;;15.00;99.90;;;;;;6152986;29;20800;-60
2021/09/05 04:57:11;;;;;;;6.70;6.10;;;15.10;99.90;;;;;;6152586;29;20849;-60
2021/09/05 05:00:15;;;;;;;6.40;5.80;;;15.10;99.90;;;;;;6152970;29;20482;-60
2021/09/05 05:03:18;;;;;;;6.27;5.63;;;15.10;99.90;;;;;;6153058;29;20483;-60
2021/09/05 05:06:42;;;;;;;6.93;5.67;;;15.00;99.90;;;;;;6153004;29;20562;-60
2021/09/05 05:09:46;;;;;;;6.97;6.27;;;15.00;99.90;;;;;;6153020;29;20494;-60
2021/09/05 05:12:49;;;;;;;6.17;5.57;;;15.10;99.90;;;;;;6152951;28;20478;-60
2021/09/05 05:15:55;;;;;;;7.10;6.50;;;15.10;99.90;;;;;;6157651;29;20478;-60
2021/09/05 05:18:58;;;;;;;6.30;5.70;;;15.10;99.90;;;;;;6157069;29;20565;-60
2021/09/05 05:22:01;;;;;;;6.13;5.53;;;15.10;99.90;;;;;;6157553;29;20470;-60
2021/09/05 05:25:07;;;;;;;7.60;6.53;;;15.10;99.90;;;;;;6156848;29;20493;-60
2021/09/05 05:28:11;;;;;;;6.93;6.20;;;15.20;99.90;;;;;;6156731;29;20497;-60
2021/09/05 05:31:14;;;;;;;8.40;6.50;;;15.30;99.90;;;;;;6157304;29;20493;-60
2021/09/05 05:34:18;;;;;;;9.70;6.50;;;15.30;99.90;;;;;;6153101;29;20470;-60
2021/09/05 05:37:21;;;;;;;5.87;5.37;;;15.40;99.90;;;;;;6156636;29;20454;-60
2021/09/05 05:40:25;;;;;;;5.90;5.30;;;15.50;99.90;;;;;;6156791;29;20466;-60
2021/09/05 05:43:28;;;;;;;7.10;5.77;;;15.50;99.90;;;;;;6156713;29;20446;-60
2021/09/05 05:46:31;;;;;;;7.33;6.33;;;15.60;99.90;;;;;;6156642;29;20922;-60
2021/09/05 05:49:35;;;;;;;9.10;8.30;;;15.70;99.90;;;;;;6156160;29;20477;-60
2021/09/05 05:52:39;;;;;;;7.00;6.03;;;15.80;99.90;;;;;;6156590;29;20505;-60
2021/09/05 05:55:43;;;;;;;7.07;6.33;;;15.90;99.90;;;;;;6156102;29;20912;-60
2021/09/05 05:58:47;;;;;;;6.10;5.50;;;16.00;99.90;;;;;;6156338;29;20975;-59
2021/09/05 06:01:50;;;;;;;7.63;6.70;;;16.10;99.90;;;;;;6156032;29;20483;-59
2021/09/05 06:04:53;;;;;;;8.13;7.30;;;16.20;99.90;;;;;;6155874;29;20475;-59
2021/09/05 06:07:56;;;;;;;7.37;6.67;;;16.30;99.90;;;;;;6155964;29;20855;-61
2021/09/05 06:11:01;;;;;;;6.20;5.70;;;16.40;99.90;;;;;;6155897;29;20798;-60
2021/09/05 06:14:04;;;;;;;6.83;5.97;;;16.60;99.90;;;;;;6156194;29;20470;-59
2021/09/05 06:17:07;;;;;;;7.70;6.90;;;16.70;99.90;;;;;;6156041;29;20485;-60
2021/09/05 06:20:11;;;;;;;7.40;6.23;;;17.10;99.90;;;;;;6155695;29;20487;-59
2021/09/05 06:23:14;;;;;;;9.57;6.43;;;17.40;99.90;;;;;;6155524;29;20862;-59
2021/09/05 06:26:19;;;;;;;7.23;6.53;;;17.90;99.90;;;;;;6155402;28;20526;-59
2021/09/05 06:29:22;;;;;;;8.90;6.20;;;19.30;99.90;;;;;;6155596;29;20928;-59
2021/09/05 06:32:25;;;;;;;9.47;7.10;;;21.10;97.20;;;;;;6155322;28;20250;-59
2021/09/05 06:35:29;;;;;;;6.30;5.70;;;22.70;93.80;;;;;;6151229;29;20246;-59
2021/09/05 06:38:32;;;;;;;8.57;6.70;;;24.10;91.00;;;;;;6155252;28;20254;-60
2021/09/05 06:41:37;;;;;;;7.47;6.87;;;25.30;84.30;;;;;;6155366;29;20235;-60
2021/09/05 06:44:40;;;;;;;6.53;5.93;;;26.50;77.70;;;;;;6155023;29;20237;-61
2021/09/05 06:47:43;;;;;;;7.40;6.80;;;27.10;72.20;;;;;;6155141;29;20230;-61
2021/09/05 06:50:46;;;;;;;8.60;7.87;;;27.60;68.20;;;;;;6154896;29;20309;-60
2021/09/05 06:53:50;;;;;;;8.13;6.60;;;28.20;63.80;;;;;;6155425;29;20226;-60
2021/09/05 06:56:54;;;;;;;7.93;7.17;;;28.50;61.70;;;;;;6155264;29;20238;-60
2021/09/05 06:59:57;;;;;;;9.87;6.73;;;28.50;59.50;;;;;;6155134;29;20254;-61
2021/09/05 07:03:00;;;;;;;7.53;6.73;;;28.30;58.90;;;;;;6155139;29;20245;-59
2021/09/05 07:06:05;;;;;;;7.37;6.70;;;28.00;58.60;;;;;;6154665;29;20249;-61
2021/09/05 07:09:08;;;;;;;7.90;7.10;;;28.00;58.50;;;;;;6155010;29;20245;-61
2021/09/05 07:12:12;;;;;;;7.90;7.30;;;29.20;56.60;;;;;;6155059;29;20552;-61
2021/09/05 07:15:16;;;;;;;10.53;7.03;;;31.10;53.10;;;;;;6154422;29;20708;-61
2021/09/05 07:18:19;;;;;;;8.27;7.30;;;32.70;49.30;;;;;;6154205;29;20250;-60
2021/09/05 07:21:22;;;;;;;7.45;6.70;;;34.20;46.00;;;;;;6154867;29;20296;-62
2021/09/05 07:24:25;;;;;;;6.20;5.68;;;35.30;42.80;;;;;;6154527;29;20626;-61
2021/09/05 07:27:30;;;;;;;8.32;7.53;;;36.20;40.20;;;;;;6154469;29;20581;-60
2021/09/05 07:30:33;;;;;;;7.78;6.97;;;36.90;38.00;;;;;;6154028;29;20245;-61
2021/09/05 07:33:37;;;;;;;7.10;6.43;;;37.80;36.30;;;;;;6154042;29;20233;-62
2021/09/05 07:36:41;;;;;;;8.07;7.38;;;38.40;34.50;;;;;;6153487;28;20241;-60
2021/09/05 07:39:44;;;;;;;7.53;6.78;;;39.10;33.70;;;;;;6149300;29;20246;-61
2021/09/05 07:42:49;;;;;;;7.57;6.70;;;40.00;32.00;;;;;;6153707;28;20253;-61
2021/09/05 07:45:52;;;;;;;6.90;6.40;;;40.80;30.60;;;;;;6153776;29;20246;-60
2021/09/05 07:48:56;;;;;;;8.57;6.82;;;41.30;29.50;;;;;;6153744;29;20234;-60
2021/09/05 07:51:59;;;;;;;6.75;6.15;;;41.30;28.80;;;;;;6153606;29;20607;-60
2021/09/05 07:55:02;;;;;;;7.53;6.60;;;41.90;28.30;;;;;;6153625;29;20225;-61
2021/09/05 07:58:07;;;;;;;6.20;5.70;;;42.60;27.80;;;;;;6153456;29;20238;-61
2021/09/05 08:01:10;;;;;;;6.40;5.90;;;43.40;27.00;;;;;;6153395;29;20245;-61
2021/09/05 08:04:13;;;;;;;6.45;5.85;;;43.80;26.40;;;;;;6153819;29;20542;-62
2021/09/05 08:07:17;;;;;;;7.13;6.53;;;44.40;25.90;;;;;;6153076;29;20245;-60
2021/09/05 08:10:20;;;;;;;6.43;5.93;;;45.10;25.50;;;;;;6153159;29;20241;-62
2021/09/05 08:13:24;;;;;;;6.40;5.88;;;45.90;24.80;;;;;;6153240;29;20228;-60
2021/09/05 08:16:27;;;;;;;5.78;5.28;;;46.10;24.30;;;;;;6153300;29;20210;-61
2021/09/05 08:19:31;;;;;;;5.80;5.30;;;46.40;24.20;;;;;;6152721;29;20247;-65
2021/09/05 08:22:34;;;;;;;6.13;5.72;;;46.70;23.70;;;;;;6152930;29;20636;-63
2021/09/05 08:25:37;;;;;;;6.20;5.70;;;47.20;23.40;;;;;;6152758;29;20672;-63
2021/09/05 08:28:42;;;;;;;6.97;6.35;;;47.40;23.10;;;;;;6152867;29;20541;-62
2021/09/05 08:31:45;;;;;;;6.65;6.05;;;48.20;22.60;;;;;;6152821;29;20233;-62
2021/09/05 08:38:05;;;;;;;6.03;5.53;;;49.50;21.20;;;;;;6399555;23;20228;-60
2021/09/05 08:41:08;;;;;;;6.10;5.70;;;48.00;21.10;;;;;;6201081;28;20588;-61
2021/09/05 08:44:12;;;;;;;5.88;5.47;;;48.10;20.70;;;;;;6690738;23;20288;-62
2021/09/05 08:47:16;;;;;;;4.65;4.32;;;48.90;20.50;;;;;;6201483;28;20467;-63
2021/09/05 08:50:19;;;;;;;5.30;4.90;;;49.30;19.70;;;;;;6206178;28;20229;-64
2021/09/05 08:53:23;;;;;;;5.57;5.10;;;49.60;19.50;;;;;;6206418;28;20232;-62
2021/09/05 08:56:26;;;;;;;5.07;4.78;;;50.40;19.30;;;;;;6205765;28;20239;-63
2021/09/05 08:59:30;;;;;;;4.75;4.45;;;51.30;18.60;;;;;;6206184;28;20246;-62
2021/09/05 09:02:47;;;;;;;5.30;4.90;;;50.60;18.90;;;;;;6206026;28;20239;-62
2021/09/05 09:05:57;;;;;;;5.60;5.20;;;51.20;18.70;;;;;;6205781;28;20232;-61
2021/09/05 09:09:04;;;;;;;5.25;4.95;;;52.10;18.10;;;;;;6205998;28;20560;-63
2021/09/05 09:12:07;;;;;;;5.72;5.32;;;51.90;17.90;;;;;;6205904;28;20246;-63
2021/09/05 09:18:30;;;;;;;5.10;4.72;;;48.60;19.40;;;;;;6495993;23;20717;-59
2021/09/05 09:21:39;;;;;;;6.25;5.75;;;49.50;19.40;;;;;;6128944;28;20233;-59
2021/09/05 09:24:43;;;;;;;4.80;4.50;;;50.00;18.80;;;;;;6169240;28;20224;-62
2021/09/05 09:27:46;;;;;;;6.00;5.50;;;50.80;18.50;;;;;;6152698;28;20249;-62
2021/09/05 09:30:49;;;;;;;5.20;4.90;;;51.70;18.10;;;;;;6144715;28;20228;-62
2021/09/05 09:33:56;;;;;;;5.60;5.20;;;50.80;18.50;;;;;;6144383;28;20249;-62
2021/09/05 09:37:00;;;;;;;5.88;5.40;;;51.20;18.40;;;;;;6139435;28;20227;-63
2021/09/05 09:40:04;;;;;;;5.60;5.20;;;52.60;17.80;;;;;;6144849;28;20224;-62
2021/09/05 09:43:16;;;;;;;5.78;5.38;;;52.70;17.90;;;;;;6142408;28;20233;-62
2021/09/05 09:46:21;;;;;;;5.25;4.95;;;52.30;18.00;;;;;;6141498;28;20236;-62
2021/09/05 09:49:26;;;;;;;5.38;5.05;;;51.40;18.20;;;;;;6145594;28;20672;-62
2021/09/05 09:52:30;;;;;;;5.50;5.18;;;50.50;18.70;;;;;;6140980;28;20207;-62
2021/09/05 09:55:34;;;;;;;5.80;5.40;;;49.10;19.30;;;;;;6131981;28;20201;-62
2021/09/05 09:58:38;;;;;;;5.93;5.43;;;47.30;19.90;;;;;;6131564;28;20235;-62
2021/09/05 10:01:41;;;;;;;5.22;4.82;;;45.40;20.60;;;;;;6131756;28;20682;-64
2021/09/05 10:04:48;;;;;;;6.30;5.80;;;43.60;21.90;;;;;;6131777;28;20580;-64
2021/09/05 10:07:53;;;;;;;5.18;4.78;;;42.60;22.70;;;;;;6131273;28;20237;-63
2021/09/05 10:10:59;;;;;;;5.47;5.07;;;40.80;23.80;;;;;;6131832;28;20235;-63
2021/09/05 10:14:02;;;;;;;5.20;4.80;;;39.40;24.70;;;;;;6131222;28;20567;-63
2021/09/05 10:17:06;;;;;;;6.00;5.50;;;37.70;26.00;;;;;;6131259;28;20235;-64
2021/09/05 10:20:12;;;;;;;6.18;5.72;;;36.60;27.30;;;;;;6151717;28;20564;-63
2021/09/05 10:23:25;;;;;;;5.82;5.25;;;35.50;28.10;;;;;;6155396;28;20234;-63
2021/09/05 10:26:29;;;;;;;6.10;5.50;;;34.90;29.40;;;;;;6154808;28;20238;-63
2021/09/05 10:29:32;;;;;;;5.22;4.82;;;34.00;30.30;;;;;;6155005;28;20242;-63
2021/09/05 10:32:43;;;;;;;5.78;5.18;;;32.80;31.60;;;;;;6154648;28;20226;-62
2021/09/05 10:35:50;;;;;;;6.63;6.03;;;32.30;32.40;;;;;;6155107;28;20234;-61
2021/09/05 10:39:04;;;;;;;6.40;5.90;;;31.90;33.30;;;;;;6154345;28;20242;-63
2021/09/05 10:42:24;;;;;;;6.03;5.43;;;31.70;34.20;;;;;;6154755;28;20593;-62
2021/09/05 10:45:27;;;;;;;5.47;4.97;;;31.40;33.90;;;;;;6154369;28;20245;-62
2021/09/05 10:48:32;;;;;;;7.00;4.80;;;31.30;34.00;;;;;;6154406;28;20576;-62
2021/09/05 10:51:46;;;;;;;5.78;5.28;;;31.20;34.40;;;;;;6146086;28;20229;-62
2021/09/05 10:54:51;;;;;;;5.85;5.25;;;31.00;35.30;;;;;;6130759;28;20234;-61
2021/09/05 10:58:01;;;;;;;5.72;5.20;;;30.80;35.00;;;;;;6130370;28;20231;-61
2021/09/05 11:01:19;;;;;;;6.72;5.88;;;30.60;35.60;;;;;;6130530;28;20235;-62
2021/09/05 11:04:24;;;;;;;6.07;5.43;;;30.30;36.00;;;;;;6140011;28;20289;-61
2021/09/05 11:07:33;;;;;;;5.93;5.33;;;30.10;36.30;;;;;;6142836;28;20219;-61
2021/09/05 11:10:50;;;;;;;5.60;5.10;;;29.90;37.00;;;;;;6141013;28;20211;-63
2021/09/05 11:13:53;;;;;;;6.50;5.50;;;30.10;37.10;;;;;;6141626;28;20231;-62
2021/09/05 11:16:57;;;;;;;5.87;5.37;;;30.10;36.90;;;;;;6141121;28;20238;-62
2021/09/05 11:20:03;;;;;;;6.33;5.73;;;30.10;35.50;;;;;;6140136;28;20229;-62
2021/09/05 11:23:08;;;;;;;5.17;4.80;;;30.20;36.50;;;;;;6142894;28;20306;-62
2021/09/05 11:26:11;;;;;;;6.05;5.55;;;30.30;36.70;;;;;;6139767;28;20237;-62
2021/09/05 11:29:23;;;;;;;7.50;5.30;;;30.20;37.20;;;;;;6141521;28;20222;-63
2021/09/05 11:32:29;;;;;;;5.97;5.45;;;30.60;37.00;;;;;;6142981;28;20237;-62
2021/09/05 11:35:41;;;;;;;6.83;5.53;;;30.60;35.80;;;;;;6139864;28;20611;-62
2021/09/05 11:38:45;;;;;;;5.83;5.37;;;30.10;36.50;;;;;;6135151;28;20310;-62
2021/09/05 11:41:52;;;;;;;6.13;5.63;;;29.70;37.50;;;;;;6129270;28;20704;-62
2021/09/05 11:45:02;;;;;;;5.87;5.27;;;29.40;37.50;;;;;;6129739;28;20230;-60
2021/09/05 11:48:08;;;;;;;6.63;6.03;;;29.10;38.90;;;;;;6137446;28;20241;-59
2021/09/05 11:51:11;;;;;;;5.70;5.20;;;28.80;38.30;;;;;;6153254;28;20323;-59
2021/09/05 11:54:17;;;;;;;5.90;5.50;;;28.60;38.70;;;;;;6148989;28;20664;-62
2021/09/05 11:57:20;;;;;;;5.27;4.87;;;29.00;38.40;;;;;;6153106;28;20238;-62
2021/09/05 12:00:26;;;;;;;5.77;5.27;;;29.30;37.80;;;;;;6152781;28;20241;-62
2021/09/05 12:03:30;;;;;;;6.50;5.80;;;29.40;37.70;;;;;;6152987;28;20226;-62
2021/09/05 12:06:34;;;;;;;6.73;6.00;;;29.40;37.20;;;;;;6152781;28;20262;-62
2021/09/05 12:09:38;;;;;;;7.03;6.30;;;29.90;36.70;;;;;;6152743;28;20595;-61
2021/09/05 12:12:42;;;;;;;6.83;4.97;;;30.10;36.30;;;;;;6152350;28;20230;-62
2021/09/05 12:15:48;;;;;;;5.80;5.30;;;30.40;36.30;;;;;;6152993;28;20230;-63
2021/09/05 12:19:03;;;;;;;6.10;5.60;;;30.60;35.20;;;;;;6151916;28;20728;-61
2021/09/05 12:22:06;;;;;;;5.90;5.32;;;30.60;35.20;;;;;;6152688;28;20253;-63
2021/09/05 12:25:18;;;;;;;5.40;4.90;;;30.80;36.10;;;;;;6152180;28;20241;-63
2021/09/05 12:28:26;;;;;;;5.28;4.88;;;31.10;37.60;;;;;;6147304;28;20567;-63
2021/09/05 12:31:44;;;;;;;6.47;5.63;;;31.20;34.50;;;;;;6128592;28;20644;-62
2021/09/05 12:34:47;;;;;;;5.63;5.18;;;31.00;34.30;;;;;;6128643;28;20239;-63
2021/09/05 12:38:08;;;;;;;5.93;5.43;;;30.60;34.80;;;;;;6128138;28;20230;-63
2021/09/05 12:41:14;;;;;;;6.75;5.25;;;30.20;35.00;;;;;;6144237;28;20245;-62
2021/09/05 12:44:17;;;;;;;7.07;5.33;;;29.80;35.20;;;;;;6152406;28;20230;-62
2021/09/05 12:47:21;;;;;;;6.77;5.30;;;29.50;35.90;;;;;;6152290;28;20245;-64
2021/09/05 12:50:25;;;;;;;5.90;5.20;;;29.30;37.30;;;;;;6152215;28;20241;-63
2021/09/05 12:53:28;;;;;;;5.17;4.77;;;29.30;36.20;;;;;;6152237;28;20242;-62
2021/09/05 12:56:33;;;;;;;6.00;5.50;;;29.00;36.50;;;;;;6151833;28;20695;-63
2021/09/05 12:59:36;;;;;;;5.57;5.07;;;29.10;37.10;;;;;;6150253;28;20234;-62
2021/09/05 13:02:39;;;;;;;6.07;5.47;;;29.30;36.20;;;;;;6135667;28;20231;-62
2021/09/05 13:05:43;;;;;;;6.40;5.80;;;29.20;36.90;;;;;;6128033;28;20704;-61
2021/09/05 13:08:48;;;;;;;5.77;5.27;;;29.10;36.90;;;;;;6142210;28;20695;-64
2021/09/05 13:11:53;;;;;;;6.23;5.63;;;29.20;36.30;;;;;;6151782;28;20556;-62
2021/09/05 13:14:56;;;;;;;5.77;5.10;;;29.20;36.30;;;;;;6145672;28;20238;-62
2021/09/05 13:18:00;;;;;;;6.20;5.70;;;29.30;36.20;;;;;;6145332;28;20230;-63
2021/09/05 13:21:04;;;;;;;6.50;5.90;;;29.50;35.70;;;;;;6151642;28;20305;-63
2021/09/05 13:24:08;;;;;;;5.17;4.70;;;29.50;35.50;;;;;;6151871;28;20227;-63
2021/09/05 13:27:12;;;;;;;6.27;5.67;;;29.00;36.20;;;;;;6151639;28;20233;-62
2021/09/05 13:30:19;;;;;;;6.93;6.33;;;28.80;37.40;;;;;;6151611;28;20234;-62
2021/09/05 13:33:22;;;;;;;6.53;5.93;;;28.40;37.00;;;;;;6151873;28;20253;-66
2021/09/05 13:36:25;;;;;;;7.53;6.77;;;28.10;37.90;;;;;;6155169;28;20236;-62
2021/09/05 13:39:28;;;;;;;6.40;5.80;;;28.10;38.30;;;;;;6143603;28;20234;-61
2021/09/05 13:42:33;;;;;;;5.60;5.10;;;28.00;38.90;;;;;;6143197;28;20226;-61
2021/09/05 13:45:36;;;;;;;6.07;5.57;;;28.20;38.10;;;;;;6143537;28;20305;-61
2021/09/05 13:48:39;;;;;;;6.40;5.80;;;28.30;37.40;;;;;;6140289;28;20972;-61
2021/09/05 13:51:42;;;;;;;7.03;5.50;;;28.50;37.10;;;;;;6140997;28;20550;-61
2021/09/05 13:54:46;;;;;;;6.20;5.70;;;28.60;37.70;;;;;;6138392;28;20548;-61
2021/09/05 13:57:50;;;;;;;5.57;5.17;;;28.70;37.10;;;;;;6140743;28;20252;-62
2021/09/05 14:00:53;;;;;;;6.30;5.47;;;28.20;37.70;;;;;;6144738;28;20238;-62
2021/09/05 14:03:57;;;;;;;5.63;5.17;;;28.10;38.20;;;;;;6140810;28;20231;-62
2021/09/05 14:07:00;;;;;;;6.33;5.73;;;27.80;38.30;;;;;;6140832;28;20664;-61
2021/09/05 14:10:04;;;;;;;6.40;5.90;;;27.50;39.00;;;;;;6141875;28;20617;-61
2021/09/05 14:13:09;;;;;;;7.50;6.57;;;27.10;39.20;;;;;;6141495;28;20246;-61
2021/09/05 14:16:12;;;;;;;6.43;5.83;;;26.80;40.20;;;;;;6143301;28;20289;-61
2021/09/05 14:19:15;;;;;;;6.60;5.73;;;26.80;40.00;;;;;;6141635;28;20226;-61
2021/09/05 14:22:18;;;;;;;5.40;4.90;;;26.70;40.20;;;;;;6145258;28;20231;-61
2021/09/05 14:25:21;;;;;;;6.17;5.67;;;26.70;40.20;;;;;;6142162;28;20237;-61
2021/09/05 14:28:30;;;;;;;6.93;5.80;;;26.60;40.50;;;;;;6143024;28;20226;-61
2021/09/05 14:31:40;;;;;;;7.93;4.90;;;26.70;38.90;;;;;;6143419;28;20199;-61
2021/09/05 14:34:54;;;;;;;5.70;5.20;;;26.60;39.00;;;;;;6143179;28;20192;-60
2021/09/05 14:48:12;;;;;;;6.20;5.60;;;26.80;38.60;;;;;;6143300;28;20310;-61
2021/09/05 14:51:40;;;;;;;6.20;5.80;;;26.70;38.20;;;;;;6141663;28;20224;-61
2021/09/05 14:54:47;;;;;;;6.83;6.23;;;26.70;38.50;;;;;;6142871;28;20569;-61
2021/09/05 14:57:50;;;;;;;5.63;5.00;;;26.60;38.80;;;;;;6140551;28;20227;-61
2021/09/05 15:00:59;;;;;;;6.23;5.73;;;26.70;39.20;;;;;;6154370;28;20230;-61
2021/09/05 15:04:09;;;;;;;5.27;4.77;;;26.60;38.90;;;;;;6154148;28;20234;-60
2021/09/05 15:13:53;;;;;;;6.70;6.00;;;26.70;39.00;;;;;;6154333;28;20234;-61
2021/09/05 15:16:58;;;;;;;5.40;4.90;;;26.70;39.10;;;;;;6153265;28;20234;-60
2021/09/05 15:20:01;;;;;;;5.70;5.20;;;26.60;39.40;;;;;;6154006;28;20231;-60
2021/09/05 15:23:04;;;;;;;6.43;4.93;;;26.40;40.30;;;;;;6153740;28;20241;-61
2021/09/05 15:26:11;;;;;;;6.03;5.53;;;26.30;40.60;;;;;;6153985;28;20238;-61
2021/09/05 15:29:20;;;;;;;6.10;5.50;;;26.10;41.00;;;;;;6153462;28;20249;-60
2021/09/05 15:36:12;;;;;;;5.70;5.20;;;26.30;41.50;;;;;;6144143;28;20234;-60
2021/09/05 15:39:41;;;;;;;8.17;4.70;;;26.30;41.80;;;;;;6141950;28;20607;-61
2021/09/05 15:49:44;;;;;;;6.10;5.60;;;26.10;41.50;;;;;;6141347;28;20231;-60
2021/09/05 15:53:06;;;;;;;6.00;5.40;;;26.00;42.10;;;;;;6150984;28;20226;-61
2021/09/05 15:56:09;;;;;;;6.53;5.43;;;25.90;41.50;;;;;;6153058;28;20238;-61
2021/09/05 15:59:15;;;;;;;6.40;5.80;;;25.80;42.20;;;;;;6152593;28;20576;-62
2021/09/05 16:02:22;;;;;;;7.53;6.53;;;25.40;42.80;;;;;;6153309;28;20787;-64
2021/09/05 16:05:43;;;;;;;6.10;5.60;;;25.30;43.30;;;;;;6152759;28;20691;-60
2021/09/05 16:18:49;;;;;;;5.53;5.03;;;24.90;45.70;;;;;;6152069;28;20266;-61
2021/09/05 16:21:54;;;;;;;6.00;5.50;;;24.80;46.20;;;;;;6152244;28;20242;-60
2021/09/05 16:24:57;;;;;;;7.37;6.67;;;24.60;46.50;;;;;;6152527;28;20367;-61
2021/09/05 16:28:00;;;;;;;7.63;6.43;;;24.60;46.90;;;;;;6152070;28;20238;-61
2021/09/05 16:31:03;;;;;;;9.03;5.40;;;24.60;46.70;;;;;;6152404;28;20241;-61
2021/09/05 16:34:11;;;;;;;5.90;5.30;;;24.60;47.00;;;;;;6152171;28;20258;-61
2021/09/05 16:37:34;;;;;;;9.37;5.90;;;24.60;47.00;;;;;;6152412;28;20239;-62
2021/09/05 16:40:38;;;;;;;8.43;6.30;;;24.60;47.00;;;;;;6152268;28;20207;-61
2021/09/05 16:43:42;;;;;;;7.17;6.50;;;24.60;47.40;;;;;;6152285;28;20214;-60
2021/09/05 16:46:45;;;;;;;8.93;8.03;;;24.50;47.50;;;;;;6152371;28;20242;-59
2021/09/05 16:49:48;;;;;;;8.60;6.93;;;24.50;48.30;;;;;;6152091;28;20244;-59
2021/09/05 16:52:53;;;;;;;7.13;6.43;;;24.40;48.00;;;;;;6151989;28;20245;-61
2021/09/05 16:55:56;;;;;;;11.30;8.80;;;24.30;48.30;;;;;;6152408;28;20234;-62
2021/09/05 16:58:59;;;;;;;8.80;7.67;;;24.40;49.10;;;;;;6152159;28;20239;-60